Time;durP1;ratioP1;P1;durP2;ratioP2;P2;SDS_P1;SDS_P2;PMS_P1;PMS_P2;Temp;Humidity;BMP_temperature;BMP_pressure;BME280_temperature;BME280_humidity;BME280_pressure;Samples;Min_cycle;Max_cycle;Signal;HPM_P1;HPM_P2
2022/03/12 00:00:13;;;;;;;8.32;3.22;;;;;;;;;;5035268;28;20022;-60
2022/03/12 00:02:39;;;;;;;7.63;3.10;;;;;;;;;;5035306;28;20047;-61
2022/03/12 00:05:08;;;;;;;8.55;3.10;;;;;;;;;;5035068;28;20048;-60
2022/03/12 00:07:35;;;;;;;8.02;3.33;;;;;;;;;;5035305;28;20072;-62
2022/03/12 00:10:01;;;;;;;8.05;3.45;;;;;;;;;;5035027;28;20359;-62
2022/03/12 00:12:34;;;;;;;7.03;3.20;;;;;;;;;;5035063;28;20034;-62
2022/03/12 00:15:09;;;;;;;8.75;3.50;;;;;;;;;;5034594;28;20474;-61
2022/03/12 00:17:35;;;;;;;8.90;3.35;;;;;;;;;;5035199;28;20076;-61
2022/03/12 00:20:02;;;;;;;6.07;3.17;;;;;;;;;;5034982;28;20033;-60
2022/03/12 00:22:28;;;;;;;6.85;3.20;;;;;;;;;;5034962;28;20576;-61
2022/03/12 00:24:55;;;;;;;7.47;3.08;;;;;;;;;;5034860;28;20029;-61
2022/03/12 00:27:21;;;;;;;8.35;3.40;;;;;;;;;;5034379;28;20095;-62
2022/03/12 00:29:48;;;;;;;6.60;3.00;;;;;;;;;;5034736;28;20029;-61
2022/03/12 00:32:14;;;;;;;7.82;3.05;;;;;;;;;;5034850;28;20406;-61
2022/03/12 00:34:40;;;;;;;7.38;3.25;;;;;;;;;;5034868;28;20036;-60
2022/03/12 00:37:06;;;;;;;7.60;3.17;;;;;;;;;;5034670;28;20029;-61
2022/03/12 00:39:32;;;;;;;6.57;2.97;;;;;;;;;;5034515;28;20029;-60
2022/03/12 00:41:58;;;;;;;6.90;3.08;;;;;;;;;;5034246;28;20544;-61
2022/03/12 00:44:24;;;;;;;8.00;3.00;;;;;;;;;;5034589;28;20037;-61
2022/03/12 00:46:50;;;;;;;7.20;2.88;;;;;;;;;;5034350;28;20030;-61
2022/03/12 00:49:16;;;;;;;6.78;2.80;;;;;;;;;;5034251;28;20493;-61
2022/03/12 00:51:44;;;;;;;5.18;2.78;;;;;;;;;;5034467;28;20026;-61
2022/03/12 00:54:11;;;;;;;7.78;2.97;;;;;;;;;;5034175;28;20082;-62
2022/03/12 00:56:39;;;;;;;9.20;3.15;;;;;;;;;;5034176;28;20018;-62
2022/03/12 00:59:05;;;;;;;5.88;2.88;;;;;;;;;;5034285;28;20025;-61
2022/03/12 01:01:31;;;;;;;6.47;2.70;;;;;;;;;;5034284;28;20492;-62
2022/03/12 01:03:57;;;;;;;5.82;2.70;;;;;;;;;;5034044;28;20072;-62
2022/03/12 01:06:23;;;;;;;5.80;2.70;;;;;;;;;;5034103;28;20528;-61
2022/03/12 01:08:49;;;;;;;6.68;2.90;;;;;;;;;;5034089;28;20029;-62
2022/03/12 01:11:15;;;;;;;5.45;2.70;;;;;;;;;;5033934;28;20030;-61
2022/03/12 01:13:41;;;;;;;5.55;2.70;;;;;;;;;;5034177;28;20421;-62
2022/03/12 01:16:08;;;;;;;5.43;2.60;;;;;;;;;;5034190;28;20363;-62
2022/03/12 01:18:37;;;;;;;5.68;2.65;;;;;;;;;;5033816;28;20029;-61
2022/03/12 01:21:07;;;;;;;5.38;2.60;;;;;;;;;;5034025;28;20032;-61
2022/03/12 01:23:33;;;;;;;6.07;2.53;;;;;;;;;;5033152;28;20025;-61
2022/03/12 01:25:59;;;;;;;6.22;2.67;;;;;;;;;;5033322;28;20090;-61
2022/03/12 01:28:25;;;;;;;5.50;2.75;;;;;;;;;;5033731;28;20025;-62
2022/03/12 01:30:54;;;;;;;6.30;2.53;;;;;;;;;;5033672;28;20021;-61
2022/03/12 01:33:20;;;;;;;5.07;2.58;;;;;;;;;;5033611;28;20049;-61
2022/03/12 01:35:46;;;;;;;6.10;2.67;;;;;;;;;;5033500;28;20056;-61
2022/03/12 01:38:12;;;;;;;5.72;2.80;;;;;;;;;;5037456;28;20021;-62
2022/03/12 01:40:38;;;;;;;4.05;2.35;;;;;;;;;;5051693;28;20478;-61
2022/03/12 01:43:05;;;;;;;5.38;2.60;;;;;;;;;;5053440;28;20021;-61
2022/03/12 01:45:31;;;;;;;4.20;2.47;;;;;;;;;;5052483;28;20065;-61
2022/03/12 01:47:58;;;;;;;6.68;2.65;;;;;;;;;;5053098;28;20040;-61
2022/03/12 01:50:25;;;;;;;5.78;2.75;;;;;;;;;;5053431;28;20021;-61
2022/03/12 01:52:51;;;;;;;4.85;2.47;;;;;;;;;;5053270;28;20079;-61
2022/03/12 01:55:18;;;;;;;5.25;2.40;;;;;;;;;;5052755;28;20036;-61
2022/03/12 01:57:44;;;;;;;5.40;2.60;;;;;;;;;;5053227;28;20100;-61
2022/03/12 02:00:22;;;;;;;5.57;2.50;;;;;;;;;;5052993;28;20116;-61
2022/03/12 02:02:53;;;;;;;5.35;2.50;;;;;;;;;;5053349;28;20373;-62
2022/03/12 02:05:20;;;;;;;6.28;2.60;;;;;;;;;;5052814;28;20043;-62
2022/03/12 02:07:46;;;;;;;4.38;2.40;;;;;;;;;;5053165;28;20093;-62
2022/03/12 02:10:20;;;;;;;6.30;2.58;;;;;;;;;;5052563;28;20025;-61
2022/03/12 02:12:46;;;;;;;4.80;2.60;;;;;;;;;;5053409;28;20096;-61
2022/03/12 02:15:12;;;;;;;4.53;2.33;;;;;;;;;;5052648;28;20521;-61
2022/03/12 02:17:38;;;;;;;4.72;2.38;;;;;;;;;;5053038;28;20033;-61
2022/03/12 02:20:05;;;;;;;5.28;2.58;;;;;;;;;;5034990;28;20056;-61
2022/03/12 02:22:32;;;;;;;5.13;2.70;;;;;;;;;;5052868;28;20029;-62
2022/03/12 02:24:58;;;;;;;4.00;2.40;;;;;;;;;;5052399;28;20401;-62
2022/03/12 02:27:25;;;;;;;6.38;2.80;;;;;;;;;;5053232;28;20031;-62
2022/03/12 02:29:52;;;;;;;7.82;2.60;;;;;;;;;;5052922;28;20022;-62
2022/03/12 02:32:18;;;;;;;5.13;2.70;;;;;;;;;;5052714;28;20086;-62
2022/03/12 02:34:46;;;;;;;5.50;2.60;;;;;;;;;;5054215;28;20487;-62
2022/03/12 02:37:20;;;;;;;4.70;2.60;;;;;;;;;;5056739;28;20029;-60
2022/03/12 02:39:46;;;;;;;4.32;2.50;;;;;;;;;;5056729;28;20025;-61
2022/03/12 02:42:12;;;;;;;4.88;2.60;;;;;;;;;;5056523;28;20036;-61
2022/03/12 02:44:38;;;;;;;7.53;2.60;;;;;;;;;;5056787;28;20045;-61
2022/03/12 02:47:12;;;;;;;4.30;2.50;;;;;;;;;;5056436;28;20052;-61
2022/03/12 02:49:40;;;;;;;4.45;2.60;;;;;;;;;;5056699;28;20029;-61
2022/03/12 02:52:06;;;;;;;4.47;2.50;;;;;;;;;;5056772;28;20025;-61
2022/03/12 02:54:34;;;;;;;6.55;2.55;;;;;;;;;;5056546;28;20025;-61
2022/03/12 02:57:02;;;;;;;5.13;2.60;;;;;;;;;;5056486;28;20021;-61
2022/03/12 02:59:29;;;;;;;5.82;2.70;;;;;;;;;;5056330;28;20155;-61
2022/03/12 03:02:03;;;;;;;5.55;2.50;;;;;;;;;;5056403;28;20036;-61
2022/03/12 03:04:34;;;;;;;4.78;2.55;;;;;;;;;;5056330;28;20111;-61
2022/03/12 03:07:00;;;;;;;5.32;2.72;;;;;;;;;;5056092;28;20017;-62
2022/03/12 03:09:26;;;;;;;5.30;2.50;;;;;;;;;;5056057;28;20041;-61
2022/03/12 03:11:53;;;;;;;6.95;2.85;;;;;;;;;;5054826;28;20029;-61
2022/03/12 03:14:23;;;;;;;6.78;2.80;;;;;;;;;;5056369;28;20028;-61
2022/03/12 03:16:50;;;;;;;4.95;2.63;;;;;;;;;;5055999;28;20049;-61
2022/03/12 03:19:17;;;;;;;5.03;2.63;;;;;;;;;;5056120;28;20040;-61
2022/03/12 03:21:43;;;;;;;5.85;2.78;;;;;;;;;;5055668;28;20029;-61
2022/03/12 03:24:09;;;;;;;5.82;2.70;;;;;;;;;;5055870;28;20033;-61
2022/03/12 03:26:38;;;;;;;5.53;2.78;;;;;;;;;;5056147;28;20537;-61
2022/03/12 03:29:08;;;;;;;8.63;2.92;;;;;;;;;;5055951;28;20087;-62
2022/03/12 03:31:34;;;;;;;7.22;2.70;;;;;;;;;;5055680;28;20018;-62
2022/03/12 03:34:01;;;;;;;4.80;2.80;;;;;;;;;;5055837;28;20100;-61
2022/03/12 03:36:27;;;;;;;5.22;2.80;;;;;;;;;;5055388;28;20025;-61
2022/03/12 03:38:53;;;;;;;5.22;2.67;;;;;;;;;;5055728;28;20162;-62
2022/03/12 03:41:19;;;;;;;5.95;2.70;;;;;;;;;;5055495;28;20477;-61
2022/03/12 03:43:46;;;;;;;4.95;2.53;;;;;;;;;;5055512;28;20096;-62
2022/03/12 03:46:12;;;;;;;5.75;2.70;;;;;;;;;;5055023;28;20043;-62
2022/03/12 03:48:39;;;;;;;7.55;2.90;;;;;;;;;;5055413;28;20401;-61
2022/03/12 03:51:05;;;;;;;9.55;3.00;;;;;;;;;;5055238;28;20546;-62
2022/03/12 03:53:31;;;;;;;5.20;2.67;;;;;;;;;;5055247;28;20434;-62
2022/03/12 03:55:59;;;;;;;5.15;2.60;;;;;;;;;;5055446;28;20056;-63
2022/03/12 03:58:26;;;;;;;5.38;2.60;;;;;;;;;;5055516;28;20029;-60
2022/03/12 04:00:59;;;;;;;5.70;2.58;;;;;;;;;;5055522;28;20017;-62
2022/03/12 04:03:29;;;;;;;5.60;2.75;;;;;;;;;;5055464;28;20139;-63
2022/03/12 04:05:55;;;;;;;5.30;2.65;;;;;;;;;;5054867;28;20167;-62
2022/03/12 04:08:21;;;;;;;9.18;2.90;;;;;;;;;;5055037;28;20036;-62
2022/03/12 04:10:47;;;;;;;6.00;2.75;;;;;;;;;;5055212;28;20428;-60
2022/03/12 04:13:16;;;;;;;5.43;2.80;;;;;;;;;;5054863;28;20036;-63
2022/03/12 04:15:41;;;;;;;5.68;2.70;;;;;;;;;;5054976;28;20033;-62
2022/03/12 04:18:08;;;;;;;7.18;2.83;;;;;;;;;;5054900;28;20080;-62
2022/03/12 04:20:34;;;;;;;6.18;2.75;;;;;;;;;;5054702;28;20025;-62
2022/03/12 04:23:00;;;;;;;5.38;2.83;;;;;;;;;;5054673;28;20094;-62
2022/03/12 04:25:31;;;;;;;7.07;2.83;;;;;;;;;;5054980;28;20363;-62
2022/03/12 04:28:00;;;;;;;4.80;2.45;;;;;;;;;;5054999;28;20032;-62
2022/03/12 04:30:28;;;;;;;6.30;2.78;;;;;;;;;;5054740;28;20033;-62
2022/03/12 04:32:54;;;;;;;7.07;2.70;;;;;;;;;;5054927;28;20079;-62
2022/03/12 04:35:21;;;;;;;4.80;2.72;;;;;;;;;;5054221;28;20055;-62
2022/03/12 04:37:48;;;;;;;5.65;2.75;;;;;;;;;;5054588;28;20021;-62
2022/03/12 04:40:17;;;;;;;5.25;2.75;;;;;;;;;;5054907;28;20029;-62
2022/03/12 04:42:43;;;;;;;6.10;2.90;;;;;;;;;;5054391;28;20029;-62
2022/03/12 04:45:11;;;;;;;7.07;2.80;;;;;;;;;;5054080;28;20120;-63
2022/03/12 04:47:37;;;;;;;6.68;2.80;;;;;;;;;;5054407;28;20039;-62
2022/03/12 04:50:05;;;;;;;6.15;2.78;;;;;;;;;;5053836;28;20031;-62
2022/03/12 04:52:32;;;;;;;6.95;2.92;;;;;;;;;;5054655;28;20096;-63
2022/03/12 04:54:58;;;;;;;5.47;2.80;;;;;;;;;;5054451;28;20036;-61
2022/03/12 04:57:24;;;;;;;5.90;2.65;;;;;;;;;;5053691;28;20021;-61
2022/03/12 04:59:50;;;;;;;7.30;2.95;;;;;;;;;;5054033;28;20033;-62
2022/03/12 05:02:16;;;;;;;6.85;2.78;;;;;;;;;;5054072;28;20035;-62
2022/03/12 05:04:42;;;;;;;7.03;2.95;;;;;;;;;;5053692;28;20504;-62
2022/03/12 05:07:10;;;;;;;6.05;2.75;;;;;;;;;;5054294;28;20025;-61
2022/03/12 05:09:36;;;;;;;7.32;2.85;;;;;;;;;;5054073;28;20033;-61
2022/03/12 05:12:05;;;;;;;6.97;2.90;;;;;;;;;;5036177;28;20462;-62
2022/03/12 05:14:35;;;;;;;6.55;2.80;;;;;;;;;;5053740;28;20120;-61
2022/03/12 05:17:04;;;;;;;5.85;2.70;;;;;;;;;;5053849;28;20028;-61
2022/03/12 05:19:30;;;;;;;8.82;3.10;;;;;;;;;;5053618;28;20436;-61
2022/03/12 05:21:56;;;;;;;5.60;2.80;;;;;;;;;;5053877;28;20474;-62
2022/03/12 05:24:22;;;;;;;7.60;3.00;;;;;;;;;;5053592;28;20159;-62
2022/03/12 05:26:48;;;;;;;5.95;2.90;;;;;;;;;;5053689;28;20389;-62
2022/03/12 05:29:14;;;;;;;7.45;2.90;;;;;;;;;;5053619;28;20036;-62
2022/03/12 05:31:40;;;;;;;9.10;3.03;;;;;;;;;;5053115;28;20636;-62
2022/03/12 05:34:06;;;;;;;7.85;3.00;;;;;;;;;;5053545;28;20107;-62
2022/03/12 05:36:33;;;;;;;6.68;2.90;;;;;;;;;;5053803;28;20028;-62
2022/03/12 05:38:59;;;;;;;9.43;3.13;;;;;;;;;;5053842;28;20028;-62
2022/03/12 05:41:26;;;;;;;8.80;2.95;;;;;;;;;;5053367;28;20100;-61
2022/03/12 05:43:53;;;;;;;6.35;2.80;;;;;;;;;;5053318;28;20070;-61
2022/03/12 05:46:21;;;;;;;10.93;3.10;;;;;;;;;;5052779;28;20033;-61
2022/03/12 05:48:48;;;;;;;7.72;2.92;;;;;;;;;;5053581;28;20079;-61
2022/03/12 05:51:14;;;;;;;9.27;3.10;;;;;;;;;;5053178;28;20032;-62
2022/03/12 05:53:42;;;;;;;11.38;3.28;;;;;;;;;;5053245;28;20105;-61
2022/03/12 05:56:08;;;;;;;9.32;3.20;;;;;;;;;;5053251;28;20036;-61
2022/03/12 05:58:39;;;;;;;8.18;2.92;;;;;;;;;;5053188;28;20374;-62
2022/03/12 06:01:05;;;;;;;;;;;;;;;;;;5053157;28;20025;-61
2022/03/12 06:03:32;;;;;;;10.45;3.00;;;;;;;;;;5053059;28;19919;-62
2022/03/12 06:05:59;;;;;;;6.90;2.75;;;;;;;;;;5052975;28;20069;-61
2022/03/12 06:08:28;;;;;;;7.63;3.00;;;;;;;;;;5052935;28;20078;-61
2022/03/12 06:10:55;;;;;;;10.30;2.80;;;;;;;;;;5053024;28;20024;-62
2022/03/12 06:13:23;;;;;;;9.13;2.95;;;;;;;;;;5052924;28;20480;-61
2022/03/12 06:15:50;;;;;;;8.55;3.10;;;;;;;;;;5052483;28;20029;-62
2022/03/12 06:18:17;;;;;;;10.20;2.90;;;;;;;;;;5052979;28;20029;-62
2022/03/12 06:20:42;;;;;;;8.57;2.78;;;;;;;;;;5052866;28;20021;-62
2022/03/12 06:23:09;;;;;;;9.68;2.90;;;;;;;;;;5052989;28;20035;-62
2022/03/12 06:25:35;;;;;;;10.48;3.10;;;;;;;;;;5052586;28;20091;-62
2022/03/12 06:28:03;;;;;;;10.27;3.00;;;;;;;;;;5034930;28;20100;-62
2022/03/12 06:30:29;;;;;;;8.80;3.00;;;;;;;;;;5034738;28;20385;-61
2022/03/12 06:32:56;;;;;;;8.43;2.70;;;;;;;;;;5052808;28;20039;-62
2022/03/12 06:35:22;;;;;;;9.18;2.75;;;;;;;;;;5052678;28;20033;-62
2022/03/12 06:37:48;;;;;;;8.40;3.00;;;;;;;;;;5052720;28;20033;-62
2022/03/12 06:40:15;;;;;;;8.75;2.90;;;;;;;;;;5052788;28;20025;-61
2022/03/12 06:42:46;;;;;;;8.93;3.00;;;;;;;;;;5052486;28;20048;-61
2022/03/12 06:45:16;;;;;;;9.88;3.00;;;;;;;;;;5034420;28;20033;-61
2022/03/12 06:47:43;;;;;;;9.63;3.00;;;;;;;;;;5052615;28;20393;-62
2022/03/12 06:50:10;;;;;;;10.40;2.90;;;;;;;;;;5052748;28;20384;-63
2022/03/12 06:52:37;;;;;;;8.23;2.70;;;;;;;;;;5052511;28;20049;-62
2022/03/12 06:55:03;;;;;;;10.00;3.13;;;;;;;;;;5052499;28;20021;-62
2022/03/12 06:57:29;;;;;;;8.98;2.50;;;;;;;;;;5052776;28;20024;-63
2022/03/12 06:59:55;;;;;;;6.97;2.65;;;;;;;;;;5052151;28;20033;-62
2022/03/12 07:02:21;;;;;;;10.38;2.72;;;;;;;;;;5052270;28;20032;-62
2022/03/12 07:04:47;;;;;;;9.38;2.90;;;;;;;;;;5052415;28;20495;-62
2022/03/12 07:07:13;;;;;;;6.57;2.63;;;;;;;;;;5052393;28;20028;-62
2022/03/12 07:09:39;;;;;;;9.30;2.97;;;;;;;;;;5034322;28;20036;-61
2022/03/12 07:12:05;;;;;;;7.90;2.88;;;;;;;;;;5052385;28;20017;-62
2022/03/12 07:14:32;;;;;;;10.13;2.95;;;;;;;;;;5052078;28;20029;-62
2022/03/12 07:16:58;;;;;;;8.13;2.92;;;;;;;;;;5052460;28;20112;-62
2022/03/12 07:19:24;;;;;;;8.18;2.70;;;;;;;;;;5052424;28;20371;-62
2022/03/12 07:21:51;;;;;;;7.70;2.80;;;;;;;;;;5055100;28;20086;-61
2022/03/12 07:24:17;;;;;;;7.78;2.80;;;;;;;;;;5055700;28;20279;-61
2022/03/12 07:26:44;;;;;;;7.88;2.72;;;;;;;;;;5055649;28;20040;-61
2022/03/12 07:29:10;;;;;;;7.45;2.47;;;;;;;;;;5055890;28;20357;-62
2022/03/12 07:31:37;;;;;;;9.52;2.80;;;;;;;;;;5055776;28;20040;-61
2022/03/12 07:34:03;;;;;;;7.65;2.75;;;;;;;;;;5056070;28;20090;-61
2022/03/12 07:36:29;;;;;;;9.30;2.70;;;;;;;;;;5055835;28;20021;-62
2022/03/12 07:38:58;;;;;;;9.68;2.70;;;;;;;;;;5055599;28;20047;-61
2022/03/12 07:41:24;;;;;;;11.40;3.08;;;;;;;;;;5055665;28;20032;-61
2022/03/12 07:43:50;;;;;;;8.57;2.80;;;;;;;;;;5055294;28;20396;-62
2022/03/12 07:46:16;;;;;;;6.45;2.67;;;;;;;;;;5055472;28;20039;-61
2022/03/12 07:48:42;;;;;;;5.68;2.53;;;;;;;;;;5055462;28;20393;-61
2022/03/12 07:51:09;;;;;;;10.07;2.90;;;;;;;;;;5055847;28;20028;-62
2022/03/12 07:53:36;;;;;;;8.70;2.70;;;;;;;;;;5055159;28;20389;-62
2022/03/12 07:56:03;;;;;;;9.68;2.50;;;;;;;;;;5056012;28;20032;-60
2022/03/12 07:58:29;;;;;;;8.20;2.60;;;;;;;;;;5055011;28;20481;-61
2022/03/12 08:00:56;;;;;;;9.52;2.70;;;;;;;;;;5055387;28;20457;-62
2022/03/12 08:03:23;;;;;;;8.00;2.67;;;;;;;;;;5055279;28;20032;-61
2022/03/12 08:05:49;;;;;;;5.20;2.58;;;;;;;;;;5054852;28;20037;-61
2022/03/12 08:08:15;;;;;;;7.22;2.60;;;;;;;;;;5055273;28;20424;-61
2022/03/12 08:13:26;;;;;;;7.53;2.78;;;;;;;;;;5054831;28;20158;-62
2022/03/12 08:15:52;;;;;;;9.98;2.95;;;;;;;;;;5054828;28;20074;-60
2022/03/12 08:18:18;;;;;;;7.13;2.42;;;;;;;;;;5054852;28;20033;-61
2022/03/12 08:20:44;;;;;;;6.25;2.40;;;;;;;;;;5055216;28;20029;-62
2022/03/12 08:23:11;;;;;;;7.28;2.45;;;;;;;;;;5054842;28;20119;-62
2022/03/12 08:25:37;;;;;;;8.25;2.60;;;;;;;;;;5054809;28;20033;-62
2022/03/12 08:28:03;;;;;;;8.27;2.50;;;;;;;;;;5054921;28;20058;-62
2022/03/12 08:30:29;;;;;;;8.02;2.58;;;;;;;;;;5055160;28;20082;-62
2022/03/12 08:32:55;;;;;;;9.48;2.58;;;;;;;;;;5053169;28;20359;-62
2022/03/12 08:35:22;;;;;;;5.95;2.40;;;;;;;;;;5054714;28;20029;-62
2022/03/12 08:37:48;;;;;;;4.70;2.25;;;;;;;;;;5054585;28;20021;-62
2022/03/12 08:40:14;;;;;;;10.18;2.58;;;;;;;;;;5054166;28;20083;-61
2022/03/12 08:42:41;;;;;;;7.55;2.60;;;;;;;;;;5054498;28;20024;-62
2022/03/12 08:45:10;;;;;;;8.32;2.83;;;;;;;;;;5054238;28;20087;-62
2022/03/12 08:47:36;;;;;;;6.07;2.55;;;;;;;;;;5054405;28;20442;-61
2022/03/12 08:50:03;;;;;;;9.13;2.72;;;;;;;;;;5054121;28;20555;-62
2022/03/12 08:52:29;;;;;;;6.68;2.50;;;;;;;;;;5054456;28;20041;-62
2022/03/12 08:54:55;;;;;;;5.50;2.60;;;;;;;;;;5053649;28;20064;-60
2022/03/12 08:57:21;;;;;;;5.38;2.40;;;;;;;;;;5049154;28;20017;-62
2022/03/12 08:59:47;;;;;;;4.40;2.20;;;;;;;;;;5053458;28;20100;-62
2022/03/12 09:02:13;;;;;;;9.35;2.50;;;;;;;;;;5054046;28;20118;-61
2022/03/12 09:04:39;;;;;;;8.98;2.60;;;;;;;;;;5053906;28;20114;-61
2022/03/12 09:07:05;;;;;;;8.20;2.60;;;;;;;;;;5054011;28;20040;-62
2022/03/12 09:09:32;;;;;;;6.03;2.33;;;;;;;;;;5053900;28;20420;-61
2022/03/12 09:11:58;;;;;;;6.15;2.38;;;;;;;;;;5054378;28;20374;-63
2022/03/12 09:14:24;;;;;;;6.68;2.40;;;;;;;;;;5053991;28;20450;-62
2022/03/12 09:16:50;;;;;;;7.65;2.42;;;;;;;;;;5054087;28;20082;-61
2022/03/12 09:19:17;;;;;;;6.85;2.35;;;;;;;;;;5054141;28;20424;-62
2022/03/12 09:21:43;;;;;;;8.20;2.55;;;;;;;;;;5054471;28;20060;-63
2022/03/12 09:24:11;;;;;;;6.43;2.50;;;;;;;;;;5053383;28;20033;-61
2022/03/12 09:26:37;;;;;;;7.35;2.55;;;;;;;;;;5053967;28;20055;-61
2022/03/12 09:29:03;;;;;;;10.52;2.42;;;;;;;;;;5053656;28;20021;-61
2022/03/12 09:31:29;;;;;;;6.22;2.30;;;;;;;;;;5053919;28;20029;-61
2022/03/12 09:33:55;;;;;;;8.27;2.40;;;;;;;;;;5053465;28;20100;-62
2022/03/12 09:36:21;;;;;;;7.20;2.40;;;;;;;;;;5053446;28;20025;-63
2022/03/12 09:38:47;;;;;;;7.72;2.50;;;;;;;;;;5053386;28;20048;-63
2022/03/12 09:41:13;;;;;;;7.70;2.30;;;;;;;;;;5053284;28;20470;-62
2022/03/12 09:43:41;;;;;;;8.23;2.60;;;;;;;;;;5052914;28;20039;-62
2022/03/12 09:46:07;;;;;;;6.30;2.38;;;;;;;;;;5052841;28;20033;-63
2022/03/12 09:48:33;;;;;;;9.27;2.47;;;;;;;;;;5053376;28;20390;-63
2022/03/12 09:50:59;;;;;;;7.35;2.38;;;;;;;;;;5053051;28;20036;-62
2022/03/12 09:53:25;;;;;;;8.57;2.63;;;;;;;;;;5052972;28;20033;-62
2022/03/12 09:55:51;;;;;;;5.82;2.58;;;;;;;;;;5052872;28;20104;-63
2022/03/12 09:58:17;;;;;;;6.57;2.40;;;;;;;;;;5053227;28;20063;-62
2022/03/12 10:00:44;;;;;;;5.00;2.20;;;;;;;;;;5053029;28;20017;-63
2022/03/12 10:03:11;;;;;;;6.38;2.20;;;;;;;;;;5053049;28;20029;-63
2022/03/12 10:05:37;;;;;;;8.45;2.40;;;;;;;;;;5052947;28;20056;-62
2022/03/12 10:08:03;;;;;;;9.65;2.40;;;;;;;;;;5052480;28;20466;-62
2022/03/12 10:10:31;;;;;;;7.28;2.45;;;;;;;;;;5052915;28;20044;-62
2022/03/12 10:12:57;;;;;;;8.52;2.40;;;;;;;;;;5052915;28;20067;-61
2022/03/12 10:15:23;;;;;;;7.72;2.28;;;;;;;;;;5052951;28;20024;-61
2022/03/12 10:17:49;;;;;;;5.40;2.10;;;;;;;;;;5052812;28;20029;-62
2022/03/12 10:20:15;;;;;;;8.60;2.38;;;;;;;;;;5052921;28;20112;-61
2022/03/12 10:22:42;;;;;;;8.23;2.17;;;;;;;;;;5052659;28;20021;-61
2022/03/12 10:25:09;;;;;;;7.40;2.10;;;;;;;;;;5052632;28;20044;-61
2022/03/12 10:27:36;;;;;;;8.80;2.10;;;;;;;;;;5052896;28;20020;-62
2022/03/12 10:30:03;;;;;;;4.63;2.30;;;;;;;;;;5052926;28;20078;-62
2022/03/12 10:32:31;;;;;;;6.05;2.20;;;;;;;;;;5052623;28;20029;-62
2022/03/12 10:34:59;;;;;;;9.13;2.72;;;;;;;;;;5052785;28;20035;-63
2022/03/12 10:37:27;;;;;;;8.63;2.20;;;;;;;;;;5052445;28;20029;-62
2022/03/12 10:40:08;;;;;;;7.28;2.38;;;;;;;;;;5052636;28;20051;-62
2022/03/12 10:42:36;;;;;;;8.18;2.38;;;;;;;;;;5052913;28;20029;-61
2022/03/12 10:45:07;;;;;;;8.15;2.35;;;;;;;;;;5052393;28;20028;-62
2022/03/12 10:47:36;;;;;;;6.45;2.35;;;;;;;;;;5052419;28;20043;-62
2022/03/12 10:50:07;;;;;;;5.72;2.20;;;;;;;;;;5052421;28;20056;-62
2022/03/12 10:52:34;;;;;;;7.35;2.50;;;;;;;;;;5052146;28;20052;-62
2022/03/12 10:55:02;;;;;;;7.65;2.20;;;;;;;;;;5052783;28;20021;-62
2022/03/12 10:57:28;;;;;;;9.60;2.20;;;;;;;;;;5056449;28;20029;-62
2022/03/12 10:59:55;;;;;;;3.83;2.13;;;;;;;;;;5056536;28;20075;-62
2022/03/12 11:02:21;;;;;;;8.73;2.20;;;;;;;;;;5056258;28;20025;-62
2022/03/12 11:04:47;;;;;;;6.28;2.17;;;;;;;;;;5056234;28;20045;-62
2022/03/12 11:07:24;;;;;;;6.68;2.25;;;;;;;;;;5055701;28;20462;-62
2022/03/12 11:09:51;;;;;;;5.78;2.30;;;;;;;;;;5056162;28;20068;-62
2022/03/12 11:12:36;;;;;;;6.15;2.25;;;;;;;;;;5056113;28;20075;-62
2022/03/12 11:15:15;;;;;;;8.40;2.20;;;;;;;;;;5056225;28;20025;-62
2022/03/12 11:17:49;;;;;;;5.10;2.10;;;;;;;;;;5055887;28;20492;-61
2022/03/12 11:20:17;;;;;;;7.63;2.15;;;;;;;;;;5055697;28;20029;-62
2022/03/12 11:22:45;;;;;;;7.18;2.08;;;;;;;;;;5055953;28;20511;-62
2022/03/12 11:25:16;;;;;;;6.75;2.10;;;;;;;;;;5055868;28;20068;-62
2022/03/12 11:27:43;;;;;;;8.05;2.30;;;;;;;;;;5056005;28;20032;-63
2022/03/12 11:30:09;;;;;;;8.45;2.30;;;;;;;;;;5055916;28;20394;-61
2022/03/12 11:32:42;;;;;;;7.65;2.25;;;;;;;;;;5055332;28;20021;-61
2022/03/12 11:35:10;;;;;;;5.20;2.10;;;;;;;;;;5055233;28;20470;-61
2022/03/12 11:37:38;;;;;;;11.60;2.42;;;;;;;;;;5055663;28;20052;-61
2022/03/12 11:40:07;;;;;;;5.45;2.10;;;;;;;;;;5055854;28;20025;-61
2022/03/12 11:42:34;;;;;;;8.10;2.30;;;;;;;;;;5055410;28;20555;-61
2022/03/12 11:45:01;;;;;;;8.43;2.40;;;;;;;;;;5055464;28;20048;-61
2022/03/12 11:47:29;;;;;;;5.95;2.20;;;;;;;;;;5055418;28;20577;-61
2022/03/12 11:49:58;;;;;;;8.27;2.33;;;;;;;;;;5055383;28;20029;-62
2022/03/12 11:52:24;;;;;;;6.47;2.17;;;;;;;;;;5055430;28;20402;-62
2022/03/12 11:54:54;;;;;;;6.50;2.20;;;;;;;;;;5055377;28;20028;-62
2022/03/12 11:57:30;;;;;;;8.02;2.15;;;;;;;;;;5055209;28;20049;-62
2022/03/12 11:59:57;;;;;;;8.95;2.30;;;;;;;;;;5055281;28;20071;-62
2022/03/12 12:02:26;;;;;;;10.98;2.30;;;;;;;;;;5055385;28;20032;-62
2022/03/12 12:04:53;;;;;;;7.40;2.20;;;;;;;;;;5055142;28;20029;-62
2022/03/12 12:07:23;;;;;;;8.25;2.20;;;;;;;;;;5054803;28;20470;-60
2022/03/12 12:09:49;;;;;;;10.32;2.38;;;;;;;;;;5055182;28;20025;-61
2022/03/12 12:12:18;;;;;;;8.90;2.28;;;;;;;;;;5055122;28;20025;-60
2022/03/12 12:14:45;;;;;;;8.57;2.30;;;;;;;;;;5054718;28;20029;-60
2022/03/12 12:17:11;;;;;;;4.85;1.98;;;;;;;;;;5054904;28;20060;-61
2022/03/12 12:19:37;;;;;;;8.55;2.30;;;;;;;;;;5036778;28;20052;-61
2022/03/12 12:22:04;;;;;;;6.30;2.10;;;;;;;;;;5054813;28;20028;-61
2022/03/12 12:24:30;;;;;;;5.45;2.10;;;;;;;;;;5038176;28;20462;-62
2022/03/12 12:27:00;;;;;;;8.80;2.17;;;;;;;;;;5035118;28;20482;-62
2022/03/12 12:29:41;;;;;;;8.48;2.17;;;;;;;;;;5034660;28;20147;-61
2022/03/12 12:32:08;;;;;;;6.10;2.17;;;;;;;;;;5034808;28;20509;-61
2022/03/12 12:34:35;;;;;;;8.25;2.10;;;;;;;;;;5034715;28;20033;-62
2022/03/12 12:37:01;;;;;;;6.22;2.00;;;;;;;;;;5035017;28;20056;-61
2022/03/12 12:39:27;;;;;;;5.03;2.17;;;;;;;;;;5034695;28;20029;-61
2022/03/12 12:41:56;;;;;;;10.10;2.20;;;;;;;;;;5034640;28;20029;-61
2022/03/12 12:44:49;;;;;;;6.88;2.20;;;;;;;;;;5034364;28;20120;-61
2022/03/12 12:47:18;;;;;;;6.72;2.10;;;;;;;;;;5031127;28;20045;-61
2022/03/12 12:49:57;;;;;;;10.60;2.20;;;;;;;;;;5034566;28;20104;-62
2022/03/12 12:52:24;;;;;;;7.55;2.20;;;;;;;;;;5034762;28;20091;-61
2022/03/12 12:54:58;;;;;;;9.30;2.25;;;;;;;;;;5034502;28;20108;-61
2022/03/12 12:57:40;;;;;;;5.93;2.05;;;;;;;;;;5034629;28;20104;-61
2022/03/12 13:00:37;;;;;;;9.27;2.20;;;;;;;;;;5034189;28;20433;-62
2022/03/12 13:03:08;;;;;;;11.35;2.35;;;;;;;;;;5017887;28;20041;-61
2022/03/12 13:05:53;;;;;;;6.75;2.30;;;;;;;;;;5034011;28;20121;-62
2022/03/12 13:08:25;;;;;;;8.07;2.20;;;;;;;;;;5034087;28;20025;-62
2022/03/12 13:10:54;;;;;;;6.72;2.00;;;;;;;;;;5033969;28;20018;-62
2022/03/12 13:13:20;;;;;;;8.48;2.20;;;;;;;;;;5034321;28;20036;-62
2022/03/12 13:15:50;;;;;;;8.45;2.17;;;;;;;;;;5033755;28;20456;-62
2022/03/12 13:18:19;;;;;;;5.93;2.00;;;;;;;;;;5033239;28;20080;-61
2022/03/12 13:20:46;;;;;;;6.78;2.17;;;;;;;;;;5033926;28;20258;-62
2022/03/12 13:23:14;;;;;;;6.97;2.08;;;;;;;;;;5033804;28;20470;-62
2022/03/12 13:25:46;;;;;;;8.95;2.25;;;;;;;;;;5033749;28;20509;-60
2022/03/12 13:28:13;;;;;;;5.38;1.98;;;;;;;;;;5033610;28;20033;-61
2022/03/12 13:30:39;;;;;;;8.45;2.38;;;;;;;;;;5033605;28;20041;-62
2022/03/12 13:33:06;;;;;;;7.88;2.20;;;;;;;;;;5016033;28;20021;-63
2022/03/12 13:35:33;;;;;;;7.47;2.25;;;;;;;;;;5033719;28;20576;-63
2022/03/12 13:38:00;;;;;;;5.72;2.10;;;;;;;;;;5033666;28;20029;-63
2022/03/12 13:40:27;;;;;;;6.43;2.20;;;;;;;;;;5033508;28;20026;-61
2022/03/12 13:42:57;;;;;;;8.32;2.30;;;;;;;;;;5033542;28;20479;-62
2022/03/12 13:45:24;;;;;;;6.85;2.13;;;;;;;;;;5032713;28;20064;-62
2022/03/12 13:47:52;;;;;;;6.82;2.13;;;;;;;;;;5033402;28;20095;-62
2022/03/12 13:50:18;;;;;;;7.47;2.30;;;;;;;;;;5033294;28;20029;-62
2022/03/12 13:52:45;;;;;;;6.60;2.20;;;;;;;;;;5033494;28;20026;-62
2022/03/12 13:55:11;;;;;;;6.78;2.03;;;;;;;;;;5033066;28;20021;-62
2022/03/12 13:57:38;;;;;;;9.00;2.30;;;;;;;;;;5033346;28;20113;-60
2022/03/12 14:00:05;;;;;;;6.88;2.10;;;;;;;;;;5032857;28;20021;-60
2022/03/12 14:02:32;;;;;;;7.82;2.40;;;;;;;;;;5033302;28;20140;-60
2022/03/12 14:04:59;;;;;;;8.27;2.08;;;;;;;;;;5033241;28;20079;-61
2022/03/12 14:07:25;;;;;;;4.82;2.13;;;;;;;;;;5033054;28;20462;-62
2022/03/12 14:09:52;;;;;;;10.35;2.30;;;;;;;;;;5033225;28;20026;-60
2022/03/12 14:12:27;;;;;;;5.18;2.10;;;;;;;;;;5032827;28;20029;-61
2022/03/12 14:15:00;;;;;;;6.00;2.20;;;;;;;;;;5032748;28;20030;-62
2022/03/12 14:17:28;;;;;;;9.95;2.30;;;;;;;;;;5029821;28;20049;-62
2022/03/12 14:19:58;;;;;;;7.78;2.15;;;;;;;;;;5045359;28;20258;-62
2022/03/12 14:22:25;;;;;;;11.20;2.08;;;;;;;;;;5048599;28;20112;-62
2022/03/12 14:24:54;;;;;;;8.18;2.10;;;;;;;;;;5048562;28;20037;-61
2022/03/12 14:27:26;;;;;;;6.95;2.15;;;;;;;;;;5048581;28;20048;-61
2022/03/12 14:29:52;;;;;;;7.38;2.00;;;;;;;;;;5050362;28;20037;-61
2022/03/12 14:32:18;;;;;;;7.88;2.10;;;;;;;;;;5053473;28;20017;-62
2022/03/12 14:34:46;;;;;;;9.70;2.50;;;;;;;;;;5034191;28;20196;-61
2022/03/12 14:37:12;;;;;;;8.55;2.20;;;;;;;;;;5049605;28;20495;-61
2022/03/12 14:39:40;;;;;;;9.30;2.20;;;;;;;;;;5047392;28;20196;-62
2022/03/12 14:42:08;;;;;;;7.47;2.25;;;;;;;;;;5052333;28;20386;-62
2022/03/12 14:44:36;;;;;;;5.45;2.03;;;;;;;;;;5052333;28;20121;-62
2022/03/12 14:47:02;;;;;;;5.18;2.33;;;;;;;;;;5052289;28;20040;-61